Time;durP1;ratioP1;P1;durP2;ratioP2;P2;SDS_P1;SDS_P2;PMS_P1;PMS_P2;Temp;Humidity;BMP_temperature;BMP_pressure;BME280_temperature;BME280_humidity;BME280_pressure;Samples;Min_cycle;Max_cycle;Signal;HPM_P1;HPM_P2
2021/06/26 00:02:15;;;;;;;11.13;10.33;;;18.20;99.90;;;;;;5055722;28;20580;-66
2021/06/26 00:04:42;;;;;;;10.70;10.00;;;18.10;99.90;;;;;;5044949;28;20187;-65
2021/06/26 00:07:08;;;;;;;11.20;10.40;;;18.10;99.90;;;;;;5041756;28;20219;-65
2021/06/26 00:09:33;;;;;;;11.23;10.43;;;18.00;99.90;;;;;;5042487;28;20652;-66
2021/06/26 00:11:59;;;;;;;11.07;10.27;;;18.00;99.90;;;;;;5054542;28;20226;-65
2021/06/26 00:14:27;;;;;;;10.63;9.93;;;17.90;99.90;;;;;;5041572;28;20191;-65
2021/06/26 00:16:52;;;;;;;10.30;9.50;;;17.90;99.90;;;;;;5056341;28;20223;-66
2021/06/26 00:19:18;;;;;;;10.93;10.13;;;17.90;99.90;;;;;;5047743;28;20780;-66
2021/06/26 00:21:43;;;;;;;10.60;9.80;;;17.90;99.90;;;;;;5061838;28;20215;-65
2021/06/26 00:24:09;;;;;;;10.70;9.93;;;17.90;99.90;;;;;;5061445;28;20209;-66
2021/06/26 00:26:35;;;;;;;9.80;9.10;;;17.80;99.90;;;;;;5061183;28;20234;-66
2021/06/26 00:29:00;;;;;;;10.27;9.57;;;17.80;99.90;;;;;;5049941;28;20265;-65
2021/06/26 00:31:26;;;;;;;10.57;9.87;;;17.80;99.90;;;;;;5056385;28;20218;-65
2021/06/26 00:33:51;;;;;;;9.47;8.77;;;17.70;99.90;;;;;;5056953;28;20191;-66
2021/06/26 00:36:17;;;;;;;10.57;9.57;;;17.70;99.90;;;;;;5049967;28;20258;-66
2021/06/26 00:38:42;;;;;;;11.67;10.90;;;17.80;99.90;;;;;;5049543;28;20206;-66
2021/06/26 00:41:08;;;;;;;10.10;9.30;;;17.70;99.90;;;;;;5055989;28;20296;-66
2021/06/26 00:43:33;;;;;;;9.80;9.10;;;17.70;99.90;;;;;;5055415;28;20392;-65
2021/06/26 00:46:00;;;;;;;9.90;9.20;;;17.70;99.90;;;;;;5045933;28;20226;-65
2021/06/26 00:48:26;;;;;;;10.47;9.77;;;17.60;99.90;;;;;;5060152;28;20454;-65
2021/06/26 00:50:52;;;;;;;10.27;9.47;;;17.50;99.90;;;;;;5054599;28;21251;-65
2021/06/26 00:53:18;;;;;;;10.90;10.00;;;17.50;99.90;;;;;;5051175;28;20191;-65
2021/06/26 00:55:51;;;;;;;9.60;9.00;;;17.50;99.90;;;;;;5045539;28;20729;-66
2021/06/26 00:58:24;;;;;;;10.20;9.50;;;17.50;99.90;;;;;;5052234;28;20187;-66
2021/06/26 01:00:51;;;;;;;10.57;9.70;;;17.40;99.90;;;;;;5046375;28;21340;-66
2021/06/26 01:03:17;;;;;;;10.70;9.90;;;17.40;99.90;;;;;;5048422;28;20686;-66
2021/06/26 01:05:43;;;;;;;10.37;9.67;;;17.40;99.90;;;;;;5053478;28;20735;-65
2021/06/26 01:08:10;;;;;;;11.10;10.30;;;17.40;99.90;;;;;;5049765;28;21006;-66
2021/06/26 01:10:36;;;;;;;10.63;9.90;;;17.40;99.90;;;;;;5063036;28;20208;-66
2021/06/26 01:13:03;;;;;;;10.23;9.53;;;17.40;99.90;;;;;;5055678;28;20658;-65
2021/06/26 01:15:28;;;;;;;10.87;10.10;;;17.20;99.90;;;;;;5052400;28;20215;-66
2021/06/26 01:17:54;;;;;;;11.20;10.40;;;17.20;99.90;;;;;;5056127;28;20633;-66
2021/06/26 01:20:20;;;;;;;10.80;10.00;;;17.20;99.90;;;;;;5053224;28;20219;-66
2021/06/26 01:22:55;;;;;;;10.93;10.13;;;17.20;99.90;;;;;;5050457;28;20265;-65
2021/06/26 01:25:22;;;;;;;10.90;10.03;;;17.10;99.90;;;;;;5041886;28;20665;-65
2021/06/26 01:27:47;;;;;;;12.10;11.20;;;17.10;99.90;;;;;;5052264;28;21281;-65
2021/06/26 01:30:15;;;;;;;10.67;9.77;;;17.10;99.90;;;;;;5052937;28;20652;-64
2021/06/26 01:32:41;;;;;;;10.17;9.40;;;17.10;99.90;;;;;;5050167;28;20190;-65
2021/06/26 01:35:08;;;;;;;9.90;9.20;;;17.00;99.90;;;;;;5047513;28;20612;-66
2021/06/26 01:37:37;;;;;;;10.90;10.10;;;17.10;99.90;;;;;;5052174;28;20719;-64
2021/06/26 01:40:03;;;;;;;11.43;10.63;;;17.00;99.90;;;;;;5058939;28;20665;-65
2021/06/26 01:42:29;;;;;;;10.37;9.67;;;17.00;99.90;;;;;;5057115;28;20629;-65
2021/06/26 01:44:54;;;;;;;9.60;8.90;;;16.90;99.90;;;;;;5059620;28;20640;-65
2021/06/26 01:47:20;;;;;;;10.10;9.33;;;16.80;99.90;;;;;;5055187;28;20199;-64
2021/06/26 01:49:46;;;;;;;11.17;10.20;;;16.80;99.90;;;;;;5058224;28;20612;-65
2021/06/26 01:52:11;;;;;;;11.37;10.57;;;16.70;99.90;;;;;;5056294;28;20667;-64
2021/06/26 01:54:38;;;;;;;11.90;11.10;;;16.70;99.90;;;;;;5061343;28;20617;-65
2021/06/26 01:57:06;;;;;;;11.50;10.70;;;16.70;99.90;;;;;;5053901;28;20227;-65
2021/06/26 01:59:32;;;;;;;11.13;10.33;;;16.70;99.90;;;;;;5050429;28;20645;-64
2021/06/26 02:02:00;;;;;;;10.80;9.90;;;16.70;99.90;;;;;;5057753;28;20633;-64
2021/06/26 02:04:25;;;;;;;11.30;10.40;;;16.70;99.90;;;;;;5058322;28;20209;-64
2021/06/26 02:06:51;;;;;;;11.90;11.00;;;16.70;99.90;;;;;;5052306;28;21207;-65
2021/06/26 02:09:16;;;;;;;11.43;10.53;;;16.60;99.90;;;;;;5053864;28;21180;-64
2021/06/26 02:11:42;;;;;;;11.50;10.70;;;16.50;99.90;;;;;;5060321;28;20279;-65
2021/06/26 02:14:07;;;;;;;12.40;11.50;;;16.50;99.90;;;;;;5059713;28;20223;-65
2021/06/26 02:16:33;;;;;;;11.13;10.33;;;16.60;99.90;;;;;;5054288;28;21014;-65
2021/06/26 02:18:59;;;;;;;11.80;11.00;;;16.60;99.90;;;;;;5057309;28;20218;-65
2021/06/26 02:21:24;;;;;;;11.13;10.33;;;16.60;99.90;;;;;;5051744;28;20222;-65
2021/06/26 02:23:50;;;;;;;11.90;11.03;;;16.50;99.90;;;;;;5053386;28;20203;-65
2021/06/26 02:26:16;;;;;;;11.33;10.43;;;16.50;99.90;;;;;;5051786;28;20220;-64
2021/06/26 02:28:42;;;;;;;11.03;10.23;;;16.50;99.90;;;;;;5056704;28;21210;-66
2021/06/26 02:31:07;;;;;;;10.67;9.87;;;16.50;99.90;;;;;;5048188;28;20196;-65
2021/06/26 02:33:33;;;;;;;11.10;10.20;;;16.40;99.90;;;;;;5056339;28;20195;-65
2021/06/26 02:36:01;;;;;;;11.67;10.77;;;16.50;99.90;;;;;;5060152;28;20314;-65
2021/06/26 02:38:26;;;;;;;11.30;10.50;;;16.50;99.90;;;;;;5055700;28;20706;-65
2021/06/26 02:40:52;;;;;;;12.00;11.10;;;16.40;99.90;;;;;;5050076;28;20622;-65
2021/06/26 02:43:19;;;;;;;11.87;10.83;;;16.40;99.90;;;;;;5057409;28;20510;-65
2021/06/26 02:45:46;;;;;;;11.53;10.73;;;16.30;99.90;;;;;;5056814;28;20686;-68
2021/06/26 02:48:11;;;;;;;11.77;10.87;;;16.30;99.90;;;;;;5049686;28;20614;-64
2021/06/26 02:50:37;;;;;;;11.20;10.40;;;16.30;99.90;;;;;;5057221;28;20713;-66
2021/06/26 02:53:03;;;;;;;11.87;10.87;;;16.30;99.90;;;;;;5050818;28;20651;-66
2021/06/26 02:55:28;;;;;;;12.50;11.50;;;16.30;99.90;;;;;;5056045;28;20306;-66
2021/06/26 02:57:54;;;;;;;11.83;11.03;;;16.30;99.90;;;;;;5052777;28;20315;-66
2021/06/26 03:00:20;;;;;;;11.20;10.40;;;16.40;99.90;;;;;;5055898;28;20203;-66
2021/06/26 03:02:46;;;;;;;11.67;10.80;;;16.40;99.90;;;;;;5052985;28;20294;-66
2021/06/26 03:05:11;;;;;;;12.00;11.13;;;16.40;99.90;;;;;;5053068;28;20694;-71
2021/06/26 03:07:37;;;;;;;12.40;11.40;;;16.40;99.90;;;;;;5054823;28;20267;-66
2021/06/26 03:10:03;;;;;;;11.87;10.90;;;16.40;99.90;;;;;;5054527;28;20219;-66
2021/06/26 03:12:31;;;;;;;12.30;11.40;;;16.40;99.90;;;;;;5070210;28;20196;-66
2021/06/26 03:14:57;;;;;;;12.77;11.57;;;16.40;99.90;;;;;;5059496;28;21266;-66
2021/06/26 03:17:22;;;;;;;11.47;10.67;;;16.30;99.90;;;;;;5055428;28;20732;-66
2021/06/26 03:19:48;;;;;;;12.33;11.40;;;16.30;99.90;;;;;;5053589;28;20228;-66
2021/06/26 03:22:13;;;;;;;11.53;10.73;;;16.40;99.90;;;;;;5056104;28;20302;-66
2021/06/26 03:24:39;;;;;;;12.13;11.20;;;16.40;99.90;;;;;;5049860;28;20236;-66
2021/06/26 03:27:04;;;;;;;12.20;11.23;;;16.40;99.90;;;;;;5057308;28;20215;-66
2021/06/26 03:29:30;;;;;;;11.97;11.07;;;16.40;99.90;;;;;;5049913;28;20406;-66
2021/06/26 03:31:56;;;;;;;11.60;10.80;;;16.40;99.90;;;;;;5057106;28;20202;-66
2021/06/26 03:34:21;;;;;;;11.73;10.93;;;16.40;99.90;;;;;;5047072;28;20184;-66
2021/06/26 03:36:47;;;;;;;12.83;11.83;;;16.40;99.90;;;;;;5058647;28;20665;-66
2021/06/26 03:39:12;;;;;;;12.13;11.23;;;16.40;99.90;;;;;;5058411;28;20207;-66
2021/06/26 03:41:38;;;;;;;12.17;11.27;;;16.40;99.90;;;;;;5045650;28;20706;-65
2021/06/26 03:44:04;;;;;;;11.93;11.03;;;16.40;99.90;;;;;;5056210;28;20202;-66
2021/06/26 03:46:29;;;;;;;12.40;11.50;;;16.40;99.90;;;;;;5058704;28;20250;-66
2021/06/26 03:48:55;;;;;;;12.83;11.83;;;16.30;99.90;;;;;;5058605;28;20654;-66
2021/06/26 03:51:21;;;;;;;13.83;12.73;;;16.40;99.90;;;;;;5062218;28;20195;-66
2021/06/26 03:53:47;;;;;;;12.47;11.47;;;16.40;99.90;;;;;;5057713;28;20188;-65
2021/06/26 03:56:14;;;;;;;12.27;11.37;;;16.40;99.90;;;;;;5057062;28;21224;-65
2021/06/26 03:58:40;;;;;;;12.07;11.17;;;16.40;99.90;;;;;;5054479;28;20656;-66
2021/06/26 04:01:06;;;;;;;12.00;11.00;;;16.50;99.90;;;;;;5058260;28;20598;-66
2021/06/26 04:03:31;;;;;;;13.10;12.03;;;16.40;99.90;;;;;;5051323;28;20622;-65
2021/06/26 04:05:57;;;;;;;12.97;11.97;;;16.40;99.90;;;;;;5056282;28;20235;-66
2021/06/26 04:08:22;;;;;;;12.83;11.73;;;16.40;99.90;;;;;;5057173;28;20283;-65
2021/06/26 04:10:48;;;;;;;12.53;11.53;;;16.40;99.90;;;;;;5059024;28;20198;-66
2021/06/26 04:13:14;;;;;;;13.40;12.13;;;16.50;99.90;;;;;;5053636;28;20199;-66
2021/06/26 04:15:39;;;;;;;13.10;12.00;;;16.40;99.90;;;;;;5058011;28;20782;-66
2021/06/26 04:18:06;;;;;;;12.23;11.30;;;16.50;99.90;;;;;;5057922;28;20221;-65
2021/06/26 04:20:31;;;;;;;12.17;11.17;;;16.40;99.90;;;;;;5056927;28;20710;-68
2021/06/26 04:22:59;;;;;;;12.30;11.30;;;16.50;99.90;;;;;;5059532;28;21215;-66
2021/06/26 04:25:26;;;;;;;11.20;10.30;;;16.50;99.90;;;;;;5051790;28;20234;-65
2021/06/26 04:27:52;;;;;;;12.00;10.90;;;16.50;99.90;;;;;;5045481;28;21239;-66
2021/06/26 04:30:18;;;;;;;11.63;10.63;;;16.60;99.90;;;;;;5052635;28;20657;-66
2021/06/26 04:32:44;;;;;;;10.40;9.53;;;16.60;99.90;;;;;;5054736;28;20232;-66
2021/06/26 04:35:12;;;;;;;10.27;9.50;;;16.70;99.90;;;;;;5055408;28;20730;-66
2021/06/26 04:37:38;;;;;;;11.33;10.43;;;16.70;99.90;;;;;;5059220;28;20690;-66
2021/06/26 04:40:04;;;;;;;12.00;11.00;;;16.70;99.90;;;;;;5046312;28;20651;-66
2021/06/26 04:42:30;;;;;;;11.27;10.37;;;16.80;99.90;;;;;;5053785;28;20691;-66
2021/06/26 04:44:57;;;;;;;10.13;9.40;;;16.80;99.90;;;;;;5050990;28;20760;-65
2021/06/26 04:47:23;;;;;;;10.37;9.57;;;16.80;99.90;;;;;;5059597;28;20675;-66
2021/06/26 04:49:51;;;;;;;10.77;9.90;;;16.90;99.90;;;;;;5053599;28;20657;-65
2021/06/26 04:52:17;;;;;;;10.60;9.70;;;16.90;99.90;;;;;;5056723;28;20845;-66
2021/06/26 04:54:43;;;;;;;11.00;10.10;;;16.90;99.90;;;;;;5057817;28;21728;-65
2021/06/26 04:57:08;;;;;;;10.60;9.80;;;17.00;99.90;;;;;;5055506;28;20223;-66
2021/06/26 04:59:36;;;;;;;10.43;9.63;;;17.00;99.90;;;;;;5052963;28;20303;-65
2021/06/26 05:02:02;;;;;;;10.07;9.27;;;17.00;99.90;;;;;;5052722;28;20183;-66
2021/06/26 05:04:27;;;;;;;10.43;9.63;;;17.00;99.90;;;;;;5058183;28;20628;-65
2021/06/26 05:06:53;;;;;;;10.30;9.40;;;17.10;99.90;;;;;;5050759;28;20215;-65
2021/06/26 05:09:18;;;;;;;10.23;9.33;;;17.10;99.90;;;;;;5055243;28;20310;-65
2021/06/26 05:11:44;;;;;;;10.10;9.10;;;17.20;99.90;;;;;;5053474;28;20283;-65
2021/06/26 05:14:12;;;;;;;9.83;9.03;;;17.20;99.90;;;;;;5063873;28;20263;-66
2021/06/26 05:16:41;;;;;;;9.90;9.20;;;17.20;99.90;;;;;;5067577;28;20256;-66
2021/06/26 05:19:07;;;;;;;9.90;9.10;;;17.20;99.90;;;;;;5056059;28;20687;-65
2021/06/26 05:21:33;;;;;;;10.60;9.70;;;17.30;99.90;;;;;;5059152;28;20716;-65
2021/06/26 05:23:58;;;;;;;10.17;9.37;;;17.30;99.90;;;;;;5055434;28;20198;-66
2021/06/26 05:26:24;;;;;;;10.70;9.80;;;17.30;99.90;;;;;;5053756;28;20254;-66
2021/06/26 05:28:50;;;;;;;10.20;9.43;;;17.30;99.90;;;;;;5058933;28;20218;-65
2021/06/26 05:31:16;;;;;;;10.03;9.33;;;17.40;99.90;;;;;;5053998;28;20192;-67
2021/06/26 05:33:42;;;;;;;10.33;9.53;;;17.40;99.90;;;;;;5064618;28;20637;-66
2021/06/26 05:36:08;;;;;;;10.23;9.43;;;17.50;99.90;;;;;;5056790;28;21034;-66
2021/06/26 05:38:33;;;;;;;10.83;10.03;;;17.50;99.90;;;;;;5048407;28;20302;-66
2021/06/26 05:40:59;;;;;;;10.97;10.10;;;17.50;99.90;;;;;;5058621;28;20195;-65
2021/06/26 05:43:24;;;;;;;11.90;10.93;;;17.60;99.90;;;;;;5056442;28;20194;-66
2021/06/26 05:45:50;;;;;;;11.30;10.50;;;17.70;99.90;;;;;;5057696;28;20240;-66
2021/06/26 05:48:16;;;;;;;11.60;10.70;;;17.80;99.90;;;;;;5062571;28;20203;-66
2021/06/26 05:50:42;;;;;;;11.57;10.67;;;17.90;99.90;;;;;;5060079;28;20199;-65
2021/06/26 05:53:08;;;;;;;10.70;9.80;;;18.00;99.90;;;;;;5058031;28;20274;-66
2021/06/26 05:55:33;;;;;;;11.53;10.63;;;18.10;99.90;;;;;;5053144;28;20629;-66
2021/06/26 05:57:59;;;;;;;11.53;10.63;;;18.20;99.90;;;;;;5049545;28;20217;-66
2021/06/26 06:00:27;;;;;;;12.63;11.63;;;18.30;99.90;;;;;;5057960;28;20238;-66
2021/06/26 06:02:52;;;;;;;12.70;11.60;;;18.40;99.90;;;;;;5060474;28;20187;-66
2021/06/26 06:05:18;;;;;;;10.60;9.80;;;18.50;99.90;;;;;;5077322;28;21009;-65
2021/06/26 06:07:45;;;;;;;11.80;10.90;;;18.60;99.90;;;;;;5057933;28;20210;-66
2021/06/26 06:10:13;;;;;;;11.80;10.87;;;18.70;99.90;;;;;;5061909;28;20735;-68
2021/06/26 06:12:39;;;;;;;11.10;10.20;;;18.80;99.90;;;;;;5040254;28;20616;-69
2021/06/26 06:15:07;;;;;;;11.13;10.13;;;18.90;99.90;;;;;;5036767;28;20621;-69
2021/06/26 06:17:33;;;;;;;10.77;9.97;;;19.10;99.90;;;;;;5051135;28;20774;-67
2021/06/26 06:19:59;;;;;;;9.53;8.83;;;19.10;99.90;;;;;;5058040;28;20656;-68
2021/06/26 06:22:24;;;;;;;10.07;9.27;;;19.20;99.90;;;;;;5066030;28;20211;-67
2021/06/26 06:24:51;;;;;;;10.90;9.80;;;19.30;99.90;;;;;;5050829;28;20618;-67
2021/06/26 06:27:17;;;;;;;10.10;9.40;;;19.40;99.90;;;;;;5048685;28;20198;-66
2021/06/26 06:29:46;;;;;;;9.03;8.33;;;19.50;99.90;;;;;;5053690;28;20652;-66
2021/06/26 06:32:12;;;;;;;10.00;9.30;;;19.60;99.90;;;;;;5049083;28;20605;-68
2021/06/26 06:34:37;;;;;;;9.60;8.80;;;19.70;99.90;;;;;;5049520;28;20640;-67
2021/06/26 06:37:03;;;;;;;8.93;8.23;;;19.70;99.90;;;;;;5042022;28;20695;-67
2021/06/26 06:39:29;;;;;;;9.17;8.47;;;19.70;99.90;;;;;;5053517;28;20230;-67
2021/06/26 06:41:54;;;;;;;8.63;8.03;;;19.80;99.90;;;;;;5059954;28;20200;-67
2021/06/26 06:44:20;;;;;;;9.60;8.80;;;19.80;99.90;;;;;;5052038;28;20206;-66
2021/06/26 06:46:46;;;;;;;9.43;8.67;;;19.90;99.90;;;;;;5058972;28;22428;-66
2021/06/26 06:49:11;;;;;;;9.27;8.57;;;20.00;99.90;;;;;;5056555;28;20319;-67
2021/06/26 06:51:37;;;;;;;9.13;8.33;;;20.10;99.90;;;;;;5060660;28;20278;-66
2021/06/26 06:54:03;;;;;;;8.40;7.80;;;20.20;99.90;;;;;;5062771;28;20279;-66
2021/06/26 06:56:32;;;;;;;8.80;8.20;;;20.30;99.90;;;;;;5062803;28;20277;-66
2021/06/26 06:58:57;;;;;;;9.40;8.70;;;20.40;99.90;;;;;;5058525;28;20673;-66
2021/06/26 07:01:24;;;;;;;9.60;8.70;;;20.50;99.90;;;;;;5053150;28;20644;-66
2021/06/26 07:03:52;;;;;;;9.17;8.50;;;20.60;99.90;;;;;;5052226;28;20212;-66
2021/06/26 07:06:17;;;;;;;12.30;11.30;;;20.70;99.90;;;;;;5060154;28;20730;-70
2021/06/26 07:08:43;;;;;;;11.73;10.83;;;20.80;99.90;;;;;;5058879;28;20740;-68
2021/06/26 07:11:08;;;;;;;12.80;11.70;;;20.80;99.90;;;;;;5054102;28;20283;-68
2021/06/26 07:13:34;;;;;;;11.10;10.10;;;20.80;99.90;;;;;;5060461;28;20297;-68
2021/06/26 07:15:59;;;;;;;10.53;9.63;;;20.90;99.90;;;;;;5057945;28;20227;-67
2021/06/26 07:18:26;;;;;;;12.10;10.83;;;20.90;99.90;;;;;;5058234;28;20180;-68
2021/06/26 07:20:52;;;;;;;12.27;11.13;;;21.00;99.90;;;;;;5063653;28;20188;-68
2021/06/26 07:23:17;;;;;;;11.10;10.10;;;21.10;99.90;;;;;;5056413;28;20975;-68
2021/06/26 07:25:43;;;;;;;11.30;10.40;;;21.20;99.90;;;;;;5049531;28;20223;-68
2021/06/26 07:28:08;;;;;;;13.80;12.43;;;21.20;99.90;;;;;;5062463;28;20278;-68
2021/06/26 07:30:34;;;;;;;13.70;12.50;;;21.30;99.90;;;;;;5063654;28;20289;-68
2021/06/26 07:32:59;;;;;;;12.93;11.67;;;21.40;99.90;;;;;;5065485;28;20752;-68
2021/06/26 07:35:25;;;;;;;11.53;10.40;;;21.40;99.90;;;;;;5061160;28;20640;-68
2021/06/26 07:37:50;;;;;;;12.90;11.70;;;21.50;99.90;;;;;;5064356;28;20265;-68
2021/06/26 07:40:16;;;;;;;13.13;11.70;;;21.60;99.90;;;;;;5058293;28;20301;-68
2021/06/26 07:42:42;;;;;;;14.13;12.80;;;21.70;99.90;;;;;;5067127;28;20191;-68
2021/06/26 07:45:09;;;;;;;13.77;12.37;;;21.80;99.90;;;;;;5057061;28;20246;-68
2021/06/26 07:47:35;;;;;;;15.07;13.67;;;21.90;99.90;;;;;;5057352;28;20712;-68
2021/06/26 07:50:02;;;;;;;16.63;15.03;;;22.00;99.90;;;;;;5076956;28;20672;-69
2021/06/26 07:52:28;;;;;;;17.00;15.30;;;22.00;99.90;;;;;;5063640;28;20484;-67
2021/06/26 07:54:53;;;;;;;17.37;15.63;;;22.00;99.90;;;;;;5060215;28;21256;-68
2021/06/26 07:57:19;;;;;;;15.70;14.20;;;22.10;99.90;;;;;;5063686;28;20231;-68
2021/06/26 07:59:45;;;;;;;16.40;14.90;;;22.20;99.90;;;;;;5067727;28;20215;-68
2021/06/26 08:02:10;;;;;;;16.53;15.03;;;22.20;99.90;;;;;;5073333;28;20498;-68
2021/06/26 08:04:38;;;;;;;16.20;14.47;;;22.20;99.90;;;;;;5061196;28;20928;-68
2021/06/26 08:07:04;;;;;;;16.67;15.17;;;22.20;99.90;;;;;;5065565;28;20234;-68
2021/06/26 08:09:29;;;;;;;16.93;15.23;;;22.20;99.90;;;;;;5066125;28;20649;-68
2021/06/26 08:11:55;;;;;;;16.20;14.70;;;22.20;99.90;;;;;;5064555;28;20199;-68
2021/06/26 08:14:21;;;;;;;15.53;14.20;;;22.30;99.90;;;;;;5063330;28;20187;-67
2021/06/26 08:16:46;;;;;;;17.00;15.40;;;22.30;99.90;;;;;;5062045;28;20260;-70
2021/06/26 08:19:12;;;;;;;15.57;14.07;;;22.40;99.90;;;;;;5065909;28;20523;-67
2021/06/26 08:21:38;;;;;;;14.60;13.20;;;22.50;99.90;;;;;;5062632;28;20290;-67
2021/06/26 08:24:04;;;;;;;16.60;14.90;;;22.60;99.90;;;;;;5062266;28;20195;-67
2021/06/26 08:26:30;;;;;;;17.30;15.70;;;22.70;99.90;;;;;;5063517;28;20234;-68
2021/06/26 08:28:55;;;;;;;15.87;14.27;;;22.80;99.90;;;;;;5065709;28;21703;-67
2021/06/26 08:31:21;;;;;;;17.33;15.60;;;22.90;99.90;;;;;;5057100;28;20202;-67
2021/06/26 08:33:49;;;;;;;16.07;14.67;;;23.00;99.90;;;;;;5063945;28;20721;-67
2021/06/26 08:36:14;;;;;;;17.17;15.57;;;23.00;99.90;;;;;;5062186;28;20241;-68
2021/06/26 08:38:40;;;;;;;15.73;14.37;;;23.00;99.90;;;;;;5063720;28;21047;-68
2021/06/26 08:41:06;;;;;;;17.03;15.43;;;23.10;99.90;;;;;;5058244;28;20191;-71
2021/06/26 08:43:33;;;;;;;15.80;14.30;;;23.20;99.90;;;;;;5065304;28;20183;-68
2021/06/26 08:46:00;;;;;;;14.10;12.80;;;23.30;99.90;;;;;;5061613;28;20665;-68
2021/06/26 08:48:26;;;;;;;12.60;11.47;;;23.30;99.90;;;;;;5064202;28;20613;-68
2021/06/26 08:50:52;;;;;;;14.43;13.30;;;23.30;99.90;;;;;;5060978;28;20638;-68
2021/06/26 08:53:18;;;;;;;14.30;13.10;;;23.50;99.90;;;;;;5060231;28;20625;-68
2021/06/26 08:55:43;;;;;;;13.70;12.40;;;23.40;99.90;;;;;;5061559;28;20300;-68
2021/06/26 08:58:11;;;;;;;15.70;14.50;;;23.50;99.90;;;;;;5063382;28;20280;-68
2021/06/26 09:00:37;;;;;;;17.03;15.50;;;23.50;99.90;;;;;;5053637;28;20295;-68
2021/06/26 09:03:14;;;;;;;16.23;14.67;;;23.60;99.90;;;;;;5075597;28;20725;-68
2021/06/26 09:05:43;;;;;;;14.90;13.70;;;23.60;99.90;;;;;;5067069;28;20900;-67
2021/06/26 09:08:19;;;;;;;14.10;12.90;;;23.60;99.90;;;;;;5062918;28;20709;-67
2021/06/26 09:10:50;;;;;;;14.27;13.07;;;23.60;99.90;;;;;;5073023;28;20763;-67
2021/06/26 09:13:24;;;;;;;14.23;13.13;;;23.60;99.90;;;;;;5065511;28;20656;-67
2021/06/26 09:16:03;;;;;;;13.23;12.13;;;23.60;99.90;;;;;;5061742;28;20758;-67
2021/06/26 09:18:28;;;;;;;15.97;14.47;;;23.70;99.90;;;;;;5061167;28;21000;-67
2021/06/26 09:20:55;;;;;;;15.70;14.20;;;23.70;99.90;;;;;;5066732;28;20593;-68
2021/06/26 09:23:32;;;;;;;15.03;13.50;;;23.70;99.90;;;;;;5063775;28;20282;-68
2021/06/26 09:26:10;;;;;;;12.80;11.70;;;23.70;99.90;;;;;;5060977;28;21220;-67
2021/06/26 09:28:36;;;;;;;15.43;13.00;;;23.70;99.90;;;;;;5064154;28;20653;-67
2021/06/26 09:31:03;;;;;;;15.20;13.87;;;23.70;99.90;;;;;;5063553;28;20704;-67
2021/06/26 09:33:29;;;;;;;14.60;13.30;;;23.80;99.90;;;;;;5066264;28;20742;-68
2021/06/26 09:36:09;;;;;;;15.10;13.70;;;23.80;99.90;;;;;;5066889;28;20918;-67
2021/06/26 09:38:53;;;;;;;13.57;12.47;;;23.90;99.90;;;;;;5069761;28;20673;-68
2021/06/26 09:41:19;;;;;;;16.77;15.17;;;24.00;99.90;;;;;;5065274;28;20609;-68
2021/06/26 09:43:45;;;;;;;14.33;13.17;;;24.10;99.90;;;;;;5062183;28;20695;-68
2021/06/26 09:46:15;;;;;;;12.60;11.50;;;24.10;99.90;;;;;;5064390;28;20223;-67
2021/06/26 09:48:55;;;;;;;12.90;11.80;;;24.20;99.90;;;;;;5064730;28;20666;-67
2021/06/26 09:51:26;;;;;;;14.77;13.47;;;24.30;99.90;;;;;;5056145;28;20626;-68
2021/06/26 09:53:56;;;;;;;15.10;13.87;;;24.30;99.90;;;;;;5052861;28;20621;-68
2021/06/26 09:56:23;;;;;;;15.93;14.40;;;24.40;99.90;;;;;;5063830;28;20756;-67
2021/06/26 09:58:52;;;;;;;14.23;13.03;;;24.40;99.90;;;;;;5066458;28;20637;-67
2021/06/26 10:01:20;;;;;;;13.90;12.60;;;24.50;99.90;;;;;;5067228;28;21233;-67
2021/06/26 10:03:48;;;;;;;12.70;11.70;;;24.40;99.90;;;;;;5075838;28;21545;-68
2021/06/26 10:06:20;;;;;;;14.57;13.37;;;24.50;99.90;;;;;;5068797;28;20660;-67
2021/06/26 10:08:46;;;;;;;13.73;12.63;;;24.50;99.90;;;;;;5066883;28;20653;-67
2021/06/26 10:11:12;;;;;;;13.60;12.50;;;24.60;99.90;;;;;;5066545;28;20762;-67
2021/06/26 10:13:40;;;;;;;14.80;13.30;;;24.60;99.90;;;;;;5067705;28;21286;-67
2021/06/26 10:16:06;;;;;;;13.27;12.13;;;24.70;99.90;;;;;;5064077;28;20714;-67
2021/06/26 10:18:32;;;;;;;13.80;12.70;;;24.70;99.90;;;;;;5063275;28;20675;-67
2021/06/26 10:20:58;;;;;;;13.33;12.13;;;24.70;99.90;;;;;;5064125;28;20672;-67
2021/06/26 10:23:31;;;;;;;13.60;12.50;;;24.70;99.90;;;;;;5063802;28;20712;-67
2021/06/26 10:25:58;;;;;;;14.30;13.00;;;24.70;99.90;;;;;;5064016;28;21133;-67
2021/06/26 10:28:24;;;;;;;13.90;12.80;;;24.80;99.90;;;;;;5063503;28;20667;-67
2021/06/26 10:31:12;;;;;;;13.63;12.40;;;24.80;99.90;;;;;;5062168;28;20869;-67
2021/06/26 10:33:38;;;;;;;14.67;13.33;;;24.80;99.90;;;;;;5065203;28;20191;-67
2021/06/26 10:36:04;;;;;;;14.10;12.90;;;24.80;99.90;;;;;;5067032;28;20609;-68
2021/06/26 10:38:40;;;;;;;14.17;13.00;;;24.80;99.90;;;;;;5078051;28;20609;-68
2021/06/26 10:41:16;;;;;;;15.30;14.03;;;24.90;99.90;;;;;;5062178;28;20740;-67
2021/06/26 10:43:56;;;;;;;17.17;15.77;;;25.00;99.90;;;;;;5063875;28;20716;-67
2021/06/26 10:46:22;;;;;;;14.97;13.67;;;25.00;99.90;;;;;;5062795;28;20748;-67
2021/06/26 10:49:14;;;;;;;14.37;13.07;;;25.00;99.90;;;;;;5062499;28;20660;-67
2021/06/26 10:51:42;;;;;;;14.30;13.20;;;25.00;99.90;;;;;;5058813;28;21579;-68
2021/06/26 10:54:13;;;;;;;14.20;12.90;;;25.20;99.90;;;;;;5059672;28;20621;-68
2021/06/26 10:56:43;;;;;;;14.33;13.03;;;25.30;99.90;;;;;;5063376;28;20975;-68
2021/06/26 10:59:11;;;;;;;14.83;13.53;;;25.30;99.90;;;;;;5063482;28;20963;-68
2021/06/26 11:01:37;;;;;;;13.40;12.17;;;25.30;99.90;;;;;;5064005;28;20636;-68
2021/06/26 11:04:11;;;;;;;16.17;14.70;;;25.40;99.90;;;;;;5064533;28;21220;-69
2021/06/26 11:06:38;;;;;;;13.73;12.63;;;25.50;99.90;;;;;;5080743;28;20725;-68
2021/06/26 11:09:12;;;;;;;11.97;11.03;;;25.50;99.90;;;;;;5061065;28;20760;-68
2021/06/26 11:11:41;;;;;;;12.93;11.80;;;25.50;99.90;;;;;;5060650;28;20629;-68
2021/06/26 11:14:19;;;;;;;12.87;11.77;;;25.60;99.90;;;;;;5064179;28;20651;-68
2021/06/26 11:17:03;;;;;;;13.87;12.40;;;25.70;99.90;;;;;;5066102;28;20645;-69
2021/06/26 11:19:36;;;;;;;14.00;12.73;;;25.70;99.90;;;;;;5065019;28;20755;-68
2021/06/26 11:22:04;;;;;;;13.83;12.50;;;25.80;99.90;;;;;;5063832;28;21023;-68
2021/06/26 11:24:44;;;;;;;13.13;12.03;;;25.70;99.90;;;;;;5059162;28;20645;-68
2021/06/26 11:27:14;;;;;;;12.80;11.80;;;25.80;99.90;;;;;;5054803;28;21002;-68
2021/06/26 11:29:44;;;;;;;12.20;11.30;;;25.80;99.90;;;;;;5064018;28;20645;-68
2021/06/26 11:32:25;;;;;;;11.97;10.97;;;25.80;99.90;;;;;;5062133;28;21172;-68
2021/06/26 11:35:06;;;;;;;11.70;10.80;;;25.80;99.90;;;;;;5062070;28;20977;-68
2021/06/26 11:37:40;;;;;;;11.77;10.83;;;25.90;99.90;;;;;;5060477;28;20681;-68
2021/06/26 11:40:27;;;;;;;12.53;11.60;;;25.90;99.90;;;;;;5059824;28;20637;-68
2021/06/26 11:42:55;;;;;;;13.30;12.10;;;25.90;99.90;;;;;;5060631;28;20608;-68
2021/06/26 11:45:27;;;;;;;12.67;11.67;;;26.00;99.90;;;;;;5062767;28;20625;-68
2021/06/26 11:48:02;;;;;;;13.53;12.33;;;26.10;99.90;;;;;;5079552;28;20741;-68
2021/06/26 11:50:28;;;;;;;12.83;11.83;;;25.90;99.90;;;;;;5079835;22;20685;-66
2021/06/26 11:53:03;;;;;;;11.70;10.70;;;26.00;99.90;;;;;;5040585;28;21244;-66
2021/06/26 11:55:55;;;;;;;12.17;11.20;;;26.00;99.90;;;;;;5023496;28;20251;-67
2021/06/26 11:58:21;;;;;;;11.57;10.63;;;26.00;99.90;;;;;;5049316;28;20622;-67
2021/06/26 12:01:01;;;;;;;11.97;10.97;;;25.90;99.90;;;;;;5072131;28;20720;-65
2021/06/26 12:03:30;;;;;;;10.10;9.30;;;25.90;99.90;;;;;;5066627;28;21072;-66
2021/06/26 12:06:03;;;;;;;12.00;11.00;;;25.80;99.90;;;;;;5057863;28;20703;-67
2021/06/26 12:08:30;;;;;;;10.43;9.63;;;25.80;99.90;;;;;;5044038;28;20677;-67
2021/06/26 12:10:57;;;;;;;10.07;9.27;;;25.80;99.90;;;;;;5061508;28;20646;-67
2021/06/26 12:13:23;;;;;;;10.00;9.30;;;25.80;99.90;;;;;;5065359;28;21170;-66
2021/06/26 12:15:49;;;;;;;10.43;9.63;;;25.80;99.90;;;;;;5056633;28;20769;-67
2021/06/26 12:18:14;;;;;;;10.80;9.90;;;26.00;99.90;;;;;;5064166;28;20297;-66
2021/06/26 12:20:40;;;;;;;12.07;11.03;;;26.10;99.90;;;;;;5058698;28;20689;-67
2021/06/26 12:23:13;;;;;;;12.30;11.30;;;26.20;99.90;;;;;;5038518;28;20286;-67
2021/06/26 12:25:42;;;;;;;10.33;9.53;;;26.30;99.90;;;;;;5057923;28;20665;-66
2021/06/26 12:28:08;;;;;;;10.90;10.00;;;26.30;99.90;;;;;;5063561;28;21120;-66
2021/06/26 12:30:36;;;;;;;10.30;9.50;;;26.40;99.90;;;;;;5059308;28;21386;-67
2021/06/26 12:33:07;;;;;;;9.93;9.13;;;26.40;99.90;;;;;;5055928;28;21171;-67